Montclair, New Jersey
Current Conditions -  °F | °C
As of 3:53 PM on Thursday 23 Oct 2014 (Local Time) from KCDW Reporting Station
Overcast Overcast  
Wind Chill: 52°   Ceiling: 1600
Heat Index: 52°   Visibility: 10mi
Dew Point: 47°   Wind: 7mph
Humidity: 83%   Direction: 320°NW
Pressure: 29.72"   Gusts: NA
Location:  40.82°N, 74.22°W
Report Text: KCDW 231953Z AUTO 32006KT 10SM BKN016 BKN023 OVC027 11/08 A2972 RMK AO2 RAE26 SLP069 P0000 T01110083 TSNO
Loading
Personal Weather Stations






























Interactive Weather Map
Tropical Storm Tracking
New forecast layout! Learn more

10-Day Weather Forecast

Advertisements
Track Severe Weather on mobile